Time;durP1;ratioP1;P1;durP2;ratioP2;P2;SDS_P1;SDS_P2;PMS_P1;PMS_P2;Temp;Humidity;BMP_temperature;BMP_pressure;BME280_temperature;BME280_humidity;BME280_pressure;Samples;Min_cycle;Max_cycle;Signal;HPM_P1;HPM_P2
2021/06/27 02:18:25;;;;;;;3.70;3.15;;;13.00;99.90;;;;;;6177978;23;20025;-82
2021/06/27 02:20:55;;;;;;;2.92;2.70;;;12.90;99.90;;;;;;6131598;23;20017;-82
2021/06/27 02:23:23;;;;;;;5.68;3.22;;;12.90;99.90;;;;;;6182065;23;20025;-82
2021/06/27 02:25:51;;;;;;;3.42;2.30;;;12.90;99.90;;;;;;6159135;23;20025;-79
2021/06/27 02:28:19;;;;;;;3.05;2.70;;;12.80;99.90;;;;;;6193776;23;20023;-82
2021/06/27 02:30:48;;;;;;;4.35;2.60;;;12.70;99.90;;;;;;6157652;23;20020;-82
2021/06/27 02:33:16;;;;;;;3.33;3.10;;;12.70;99.90;;;;;;6189644;23;20077;-78
2021/06/27 02:35:45;;;;;;;4.82;3.58;;;12.70;99.90;;;;;;6185154;23;20028;-80
2021/06/27 02:38:13;;;;;;;3.85;3.30;;;12.60;99.90;;;;;;6181194;23;20025;-80
2021/06/27 02:40:43;;;;;;;2.72;2.50;;;12.60;99.90;;;;;;6192290;23;20138;-79
2021/06/27 02:43:11;;;;;;;3.80;3.13;;;12.60;99.90;;;;;;6158204;23;20024;-80
2021/06/27 02:45:40;;;;;;;3.40;2.55;;;12.60;99.90;;;;;;6188255;23;20021;-84
2021/06/27 02:48:08;;;;;;;3.20;2.65;;;12.60;99.90;;;;;;6194391;23;20017;-80
2021/06/27 02:50:38;;;;;;;2.58;2.17;;;12.50;99.90;;;;;;6183894;23;20325;-80
2021/06/27 02:53:08;;;;;;;3.60;2.25;;;12.50;99.90;;;;;;6189213;23;20628;-80
2021/06/27 02:55:36;;;;;;;2.90;2.22;;;12.50;99.90;;;;;;6194419;23;20036;-80
2021/06/27 02:58:04;;;;;;;4.95;2.00;;;12.50;99.90;;;;;;6156341;23;20506;-80
2021/06/27 03:00:32;;;;;;;2.80;2.38;;;12.50;99.90;;;;;;6192210;23;20474;-80
2021/06/27 03:03:01;;;;;;;2.38;2.17;;;12.60;99.90;;;;;;6182309;23;20021;-80
2021/06/27 03:05:29;;;;;;;3.08;2.33;;;12.60;99.90;;;;;;6188627;23;20040;-84
2021/06/27 04:18:54;;;;;;;1.20;1.10;;;12.90;99.90;;;;;;6042648;23;20018;-86
2021/06/27 04:33:36;;;;;;;;;;;;;;;;;;;;;
2021/06/27 05:59:10;;;;;;;2.08;1.20;;;16.50;99.90;;;;;;6153847;23;20017;-83
2021/06/27 06:01:38;;;;;;;0.95;0.95;;;16.50;99.90;;;;;;6155263;23;20029;-83
2021/06/27 06:51:06;;;;;;;1.55;1.45;;;17.60;99.90;;;;;;6182046;22;20032;-85
2021/06/27 07:12:13;;;;;;;2.58;1.55;;;18.40;99.90;;;;;;6177973;23;20020;-85
2021/06/27 08:13:32;;;;;;;1.15;1.05;;;19.70;99.90;;;;;;6175985;23;20033;-88
2021/06/27 08:33:14;;;;;;;3.22;1.48;;;20.70;99.90;;;;;;6114836;22;20027;-85
2021/06/27 08:36:45;;;;;;;1.77;1.00;;;20.80;99.90;;;;;;6178397;23;20436;-86
2021/06/27 08:39:47;;;;;;;4.07;1.33;;;20.50;99.90;;;;;;6181136;23;20025;-85
2021/06/27 08:42:22;;;;;;;1.70;1.20;;;20.70;99.90;;;;;;6137832;23;20021;-84
2021/06/27 08:45:54;;;;;;;3.67;1.90;;;20.70;99.90;;;;;;6170488;23;20025;-90
2021/06/27 08:52:04;;;;;;;2.85;1.75;;;20.90;99.90;;;;;;6161369;23;20021;-88
2021/06/27 08:55:12;;;;;;;2.97;1.90;;;21.00;99.90;;;;;;6100273;23;20021;-89
2021/06/27 08:57:40;;;;;;;1.30;1.20;;;21.10;99.90;;;;;;6155174;23;20029;-87
2021/06/27 09:00:14;;;;;;;1.38;1.27;;;21.10;99.90;;;;;;6132679;23;20348;-85
2021/06/27 09:02:46;;;;;;;2.72;2.53;;;21.20;99.90;;;;;;6155508;23;20021;-84
2021/06/27 10:27:53;;;;;;;2.43;2.20;;;22.90;99.90;;;;;;6137143;23;20025;31
2021/06/27 12:16:02;;;;;;;1.83;1.52;;;24.30;98.50;;;;;;6152715;23;20029;-90
2021/06/27 12:41:38;;;;;;;1.42;1.33;;;24.50;96.90;;;;;;6120045;23;20350;31
2021/06/27 12:48:36;;;;;;;1.80;1.70;;;24.60;96.30;;;;;;6122630;23;20030;-91
2021/06/27 14:01:28;;;;;;;4.68;2.13;;;25.00;96.40;;;;;;6150333;23;20017;-81
2021/06/27 14:03:57;;;;;;;3.35;3.15;;;25.00;98.30;;;;;;6162955;23;20014;-80
2021/06/27 14:06:26;;;;;;;2.78;2.47;;;25.10;97.40;;;;;;6153613;23;20348;-81
2021/06/27 14:08:54;;;;;;;2.58;2.38;;;25.00;96.50;;;;;;6159399;23;20036;-80
2021/06/27 14:11:23;;;;;;;3.63;2.45;;;25.00;95.40;;;;;;6151419;23;20022;-81
2021/06/27 14:13:51;;;;;;;5.03;3.70;;;25.10;94.80;;;;;;6125636;23;20026;-81
2021/06/27 14:16:19;;;;;;;2.00;1.80;;;25.20;95.80;;;;;;6162335;23;20337;-81
2021/06/27 14:18:47;;;;;;;2.33;2.13;;;25.30;94.80;;;;;;6152145;23;20495;-81
2021/06/27 14:21:16;;;;;;;6.45;2.45;;;25.50;96.40;;;;;;6151642;23;20033;-82
2021/06/27 14:23:44;;;;;;;2.10;1.90;;;25.60;94.40;;;;;;6151486;23;20025;-83
2021/06/27 14:26:13;;;;;;;2.22;2.03;;;25.50;93.60;;;;;;6126150;23;20025;-82
2021/06/27 14:28:41;;;;;;;2.28;2.15;;;25.50;93.80;;;;;;6150963;23;20021;-83
2021/06/27 14:31:10;;;;;;;2.90;1.75;;;25.50;91.60;;;;;;6127108;23;20032;-83
2021/06/27 14:33:45;;;;;;;2.65;2.38;;;25.50;93.90;;;;;;6151417;23;20026;-84
2021/06/27 14:36:31;;;;;;;2.50;2.30;;;25.50;93.00;;;;;;6125987;23;20045;-84
2021/06/27 14:39:01;;;;;;;2.17;1.92;;;25.50;91.70;;;;;;6155087;23;20032;-85
2021/06/27 14:41:32;;;;;;;2.42;2.22;;;25.40;91.90;;;;;;6151157;23;20025;-84
2021/06/27 14:44:14;;;;;;;2.13;2.03;;;25.30;92.70;;;;;;6102498;23;20018;-84
2021/06/27 14:46:42;;;;;;;1.65;1.55;;;25.20;91.80;;;;;;6125478;23;20021;-83
2021/06/27 14:49:21;;;;;;;2.35;1.88;;;25.30;90.80;;;;;;6136785;23;20314;-85
2021/06/27 14:52:07;;;;;;;1.98;1.88;;;25.40;94.50;;;;;;6157302;23;20017;-84
2021/06/27 14:54:47;;;;;;;1.90;1.80;;;25.50;90.80;;;;;;6128386;23;20491;-83
2021/06/27 14:57:38;;;;;;;2.10;2.00;;;25.50;92.40;;;;;;6155265;23;20028;-83
2021/06/27 15:00:08;;;;;;;2.70;1.83;;;25.70;91.50;;;;;;6181594;23;20017;-80
2021/06/27 15:02:36;;;;;;;2.00;1.80;;;25.80;91.40;;;;;;6154752;23;20021;-84
2021/06/27 15:05:54;;;;;;;2.45;2.25;;;25.80;94.00;;;;;;6149614;23;20025;-91
2021/06/27 15:21:46;;;;;;;;;;;25.70;91.30;;;;;;6147418;23;20683;-88
2021/06/27 15:43:28;;;;;;;1.92;1.75;;;25.10;90.90;;;;;;6145484;23;20037;31
2021/06/27 15:46:00;;;;;;;1.83;1.70;;;24.80;92.30;;;;;;6046852;23;20040;-88
2021/06/27 15:53:24;;;;;;;1.98;1.88;;;24.60;94.70;;;;;;6157602;22;20025;-86
2021/06/27 15:55:52;;;;;;;1.80;1.70;;;24.70;94.70;;;;;;6176619;23;20018;-85
2021/06/27 16:13:04;;;;;;;;;;;;;;;;;;;;;
2021/06/27 17:15:05;;;;;;;2.40;2.10;;;24.90;95.40;;;;;;6156077;23;20029;-85
2021/06/27 17:17:32;;;;;;;5.60;1.97;;;24.90;96.80;;;;;;6194389;23;20063;-84
2021/06/27 17:20:00;;;;;;;1.95;1.85;;;24.90;97.60;;;;;;6210079;23;20016;-84
2021/06/27 17:22:28;;;;;;;2.10;2.00;;;24.80;97.00;;;;;;6209568;23;20707;-85
2021/06/27 17:24:57;;;;;;;1.90;1.80;;;24.70;96.40;;;;;;6219375;23;20335;-83
2021/06/27 17:27:25;;;;;;;2.53;2.33;;;24.70;96.90;;;;;;6210905;23;20024;-82
2021/06/27 17:29:53;;;;;;;2.10;1.88;;;24.70;97.70;;;;;;6215029;23;20032;-81
2021/06/27 17:32:21;;;;;;;1.77;1.67;;;24.90;97.40;;;;;;6221388;23;20031;-81
2021/06/27 17:34:49;;;;;;;2.00;1.90;;;25.10;97.20;;;;;;6211790;23;20013;-82
2021/06/27 17:37:16;;;;;;;2.55;2.20;;;24.90;97.00;;;;;;6186002;23;20456;-82
2021/06/27 17:39:44;;;;;;;1.95;1.83;;;24.80;96.40;;;;;;6210198;23;20025;-84
2021/06/27 17:42:14;;;;;;;5.15;2.50;;;24.60;96.90;;;;;;6161558;23;20016;-83
2021/06/27 17:44:42;;;;;;;1.80;1.70;;;24.60;98.20;;;;;;6210898;23;20339;-84
2021/06/27 17:47:10;;;;;;;2.42;2.22;;;24.40;97.80;;;;;;6162451;23;20040;-84
2021/06/27 17:49:39;;;;;;;2.05;1.88;;;24.30;99.90;;;;;;6214910;23;20367;-84
2021/06/27 17:52:08;;;;;;;2.83;2.30;;;24.10;99.90;;;;;;6211156;23;20024;-79
2021/06/27 17:54:44;;;;;;;1.83;1.73;;;23.90;99.90;;;;;;6211286;23;20032;-87
2021/06/27 17:57:40;;;;;;;2.13;1.75;;;23.70;99.90;;;;;;6184358;23;20024;-89
2021/06/27 18:00:31;;;;;;;1.80;1.70;;;23.70;99.90;;;;;;6185710;23;20031;-80
2021/06/27 18:03:19;;;;;;;2.17;1.98;;;23.60;99.90;;;;;;6138724;23;20035;-86
2021/06/27 18:06:27;;;;;;;8.05;1.85;;;23.60;99.90;;;;;;6209461;23;20024;-86
2021/06/27 18:08:55;;;;;;;2.58;2.28;;;23.50;99.90;;;;;;6185220;23;20028;-86
2021/06/27 18:11:23;;;;;;;3.53;2.95;;;23.40;99.00;;;;;;6184959;23;20017;-82
2021/06/27 18:13:54;;;;;;;2.70;2.50;;;23.40;99.90;;;;;;6208871;23;20024;-82
2021/06/27 18:16:23;;;;;;;5.38;1.73;;;23.40;98.20;;;;;;6184950;23;20023;-83
2021/06/27 18:18:51;;;;;;;2.92;2.72;;;23.50;98.10;;;;;;6210365;23;20016;-82
2021/06/27 18:21:20;;;;;;;2.75;2.55;;;23.50;97.70;;;;;;6209286;23;20452;-82
2021/06/27 18:23:48;;;;;;;2.40;2.00;;;23.70;98.70;;;;;;6210710;23;20025;-82
2021/06/27 18:26:20;;;;;;;2.35;2.08;;;23.90;98.20;;;;;;6213315;23;20021;-82
2021/06/27 18:28:50;;;;;;;2.25;2.05;;;24.30;97.60;;;;;;6209729;23;20044;-84
2021/06/27 18:31:19;;;;;;;3.03;2.40;;;24.30;97.50;;;;;;6186206;23;20020;-84
2021/06/27 18:33:47;;;;;;;3.92;3.03;;;24.20;98.70;;;;;;6210232;23;20031;-83
2021/06/27 18:36:16;;;;;;;3.17;2.88;;;24.10;99.30;;;;;;6210140;23;20028;-83
2021/06/27 18:38:44;;;;;;;5.95;2.55;;;23.90;99.60;;;;;;6210950;23;20024;-83
2021/06/27 18:41:13;;;;;;;3.65;2.25;;;23.70;99.90;;;;;;6210563;23;20024;-83
2021/06/27 18:43:41;;;;;;;3.22;2.45;;;23.50;99.90;;;;;;6187004;23;20028;-84
2021/06/27 18:46:09;;;;;;;2.55;2.35;;;23.40;99.90;;;;;;6216526;23;20017;-84
2021/06/27 18:48:37;;;;;;;2.55;2.33;;;23.30;99.70;;;;;;6222173;23;20021;-83
2021/06/27 18:51:06;;;;;;;2.10;2.00;;;23.20;99.20;;;;;;6211815;23;20097;-83
2021/06/27 18:53:35;;;;;;;2.42;2.22;;;23.10;99.90;;;;;;6216206;23;20043;-83
2021/06/27 18:56:05;;;;;;;2.78;2.58;;;22.90;99.90;;;;;;6221894;23;20017;-87
2021/06/27 18:58:38;;;;;;;9.80;2.85;;;22.70;99.70;;;;;;6214500;23;20028;-85
2021/06/27 19:01:10;;;;;;;7.75;2.53;;;22.60;99.90;;;;;;6220667;23;20031;-80
2021/06/27 19:03:38;;;;;;;2.88;2.42;;;22.60;99.90;;;;;;6211714;23;20020;-83
2021/06/27 19:06:06;;;;;;;3.95;3.65;;;22.30;99.90;;;;;;6213488;23;20029;-83
2021/06/27 19:08:34;;;;;;;2.35;2.15;;;22.20;99.90;;;;;;6211260;23;20017;-82
2021/06/27 19:11:02;;;;;;;2.97;2.30;;;22.00;99.90;;;;;;6224027;23;20016;-80
2021/06/27 19:13:30;;;;;;;3.20;2.90;;;21.70;99.90;;;;;;6213335;23;20040;-81
2021/06/27 19:15:58;;;;;;;2.10;1.95;;;21.50;99.90;;;;;;6211635;23;20012;-83
2021/06/27 19:18:26;;;;;;;2.80;2.60;;;21.50;99.90;;;;;;6211782;23;20028;-83
2021/06/27 19:20:58;;;;;;;4.00;2.90;;;21.30;99.90;;;;;;6221206;23;20331;-83
2021/06/27 19:23:28;;;;;;;2.90;2.70;;;21.20;99.90;;;;;;6187154;23;20350;-83
2021/06/27 19:25:58;;;;;;;2.97;2.67;;;21.10;99.90;;;;;;6162423;23;20032;-83
2021/06/27 19:28:27;;;;;;;2.53;2.33;;;21.10;99.90;;;;;;6213398;23;20035;-84
2021/06/27 19:30:55;;;;;;;4.85;4.22;;;21.00;99.90;;;;;;6223785;23;20027;-84
2021/06/27 19:33:23;;;;;;;6.70;2.67;;;20.90;99.90;;;;;;6216506;23;20032;-86
2021/06/27 19:35:52;;;;;;;3.22;2.80;;;20.90;99.90;;;;;;6208089;23;20379;-84
2021/06/27 19:38:20;;;;;;;2.85;2.65;;;20.70;99.90;;;;;;6207118;23;20044;-86
2021/06/27 19:40:50;;;;;;;2.63;2.42;;;20.80;99.90;;;;;;6211404;23;20478;-84
2021/06/27 19:43:20;;;;;;;;;;;20.70;99.90;;;;;;6223505;23;20021;-87
2021/06/27 19:45:50;;;;;;;3.38;2.42;;;20.70;99.90;;;;;;6210869;23;19916;-84
2021/06/27 19:48:20;;;;;;;;;;;20.60;99.90;;;;;;6210899;23;20024;-85
2021/06/27 19:50:51;;;;;;;2.67;1.55;;;20.60;99.90;;;;;;6210591;23;19916;-85
2021/06/27 19:53:24;;;;;;;6.72;1.58;;;20.50;99.90;;;;;;6160563;23;20467;-85
2021/06/27 19:56:31;;;;;;;1.60;1.50;;;20.50;99.90;;;;;;6210748;23;20021;-86
2021/06/27 19:58:57;;;;;;;1.80;1.65;;;20.50;99.90;;;;;;6184638;23;20348;-86
2021/06/27 20:01:25;;;;;;;2.03;1.35;;;20.40;99.90;;;;;;6210137;23;20043;-85
2021/06/27 20:04:00;;;;;;;2.35;2.10;;;20.30;99.90;;;;;;6209273;23;20411;-85
2021/06/27 20:06:29;;;;;;;1.20;1.10;;;20.20;99.90;;;;;;6210802;23;20035;-85
2021/06/27 20:09:03;;;;;;;1.55;1.45;;;20.10;99.90;;;;;;6207356;23;20021;-87
2021/06/27 20:11:34;;;;;;;1.25;1.15;;;20.00;99.90;;;;;;6220941;23;20036;-87
2021/06/27 20:14:03;;;;;;;2.53;0.85;;;19.90;99.90;;;;;;6160861;23;20028;-88
2021/06/27 20:16:37;;;;;;;1.10;1.00;;;19.90;99.90;;;;;;6209171;23;20432;-88
2021/06/27 20:19:07;;;;;;;1.60;1.30;;;19.80;99.90;;;;;;6209524;23;20028;-88
2021/06/27 20:21:36;;;;;;;2.13;1.40;;;19.70;99.90;;;;;;6208840;23;20032;-88
2021/06/27 20:24:04;;;;;;;0.80;0.80;;;19.60;99.90;;;;;;6222327;23;20039;-87
2021/06/27 20:26:33;;;;;;;1.52;1.00;;;19.50;99.90;;;;;;6211442;23;20020;-87
2021/06/27 20:29:02;;;;;;;1.30;0.93;;;19.50;99.90;;;;;;6185164;23;20032;-87
2021/06/27 20:31:30;;;;;;;1.92;0.80;;;19.40;99.90;;;;;;6209868;23;20028;-88
2021/06/27 20:33:59;;;;;;;0.70;0.70;;;19.30;99.90;;;;;;6215037;23;20036;-88
2021/06/27 20:36:29;;;;;;;2.67;1.00;;;19.20;99.90;;;;;;6209349;23;20024;-89
2021/06/27 20:38:57;;;;;;;1.15;0.80;;;19.00;99.90;;;;;;6220725;23;20016;-88
2021/06/27 20:41:26;;;;;;;0.70;0.65;;;18.90;99.90;;;;;;6159734;23;20032;-88
2021/06/27 20:43:54;;;;;;;1.15;0.90;;;18.70;99.90;;;;;;6186345;23;20024;-88
2021/06/27 20:46:23;;;;;;;0.80;0.80;;;18.60;99.90;;;;;;6185625;23;20027;-89
2021/06/27 20:48:51;;;;;;;1.35;1.25;;;18.50;99.90;;;;;;6211894;23;20020;-89
2021/06/27 20:51:21;;;;;;;0.80;0.80;;;18.40;99.90;;;;;;6185852;23;20486;-87
2021/06/27 20:53:49;;;;;;;1.08;0.70;;;18.30;99.90;;;;;;6160090;23;20021;-88
2021/06/27 20:56:18;;;;;;;0.65;0.65;;;18.20;99.90;;;;;;6185041;23;20017;-90
2021/06/27 20:58:46;;;;;;;1.05;0.80;;;18.30;99.90;;;;;;6210050;23;20024;-88
2021/06/27 21:01:15;;;;;;;1.25;0.70;;;18.30;99.90;;;;;;6210051;23;20025;-88
2021/06/27 21:03:45;;;;;;;1.30;0.70;;;18.30;99.90;;;;;;6212102;23;20436;-88
2021/06/27 21:06:15;;;;;;;2.10;0.95;;;18.50;99.90;;;;;;6184775;23;20021;-89
2021/06/27 21:08:48;;;;;;;0.85;0.85;;;18.40;99.90;;;;;;6209314;23;20024;-89
2021/06/27 21:11:18;;;;;;;1.45;1.13;;;18.20;99.90;;;;;;6210504;23;20027;-90
2021/06/27 21:13:48;;;;;;;1.02;0.95;;;17.90;99.90;;;;;;6210256;23;20363;-86
2021/06/27 21:16:19;;;;;;;0.80;0.80;;;17.80;99.90;;;;;;6186038;23;20020;-86
2021/06/27 21:18:48;;;;;;;1.20;1.10;;;17.70;99.90;;;;;;6208732;23;20051;-86
2021/06/27 21:21:16;;;;;;;1.98;1.00;;;17.60;99.90;;;;;;6210401;23;20044;-86
2021/06/27 21:23:44;;;;;;;1.02;0.85;;;17.40;99.90;;;;;;6209913;23;20020;-86
2021/06/27 21:26:12;;;;;;;4.75;1.10;;;17.30;99.90;;;;;;6209442;23;20032;-86
2021/06/27 21:28:40;;;;;;;1.00;0.88;;;17.30;99.90;;;;;;6185095;23;20039;-86
2021/06/27 21:31:08;;;;;;;4.57;1.13;;;17.30;99.90;;;;;;6160496;23;20016;-86
2021/06/27 21:33:36;;;;;;;0.80;0.77;;;17.20;99.90;;;;;;6184270;23;20785;-86
2021/06/27 21:36:04;;;;;;;1.00;1.00;;;17.20;99.90;;;;;;6211812;23;20028;-86
2021/06/27 21:38:32;;;;;;;1.33;1.05;;;17.00;99.90;;;;;;6208939;23;20031;-86
2021/06/27 21:41:00;;;;;;;0.80;0.63;;;17.00;99.90;;;;;;6185199;23;20027;-86
2021/06/27 21:43:28;;;;;;;1.63;1.17;;;16.90;99.90;;;;;;6211661;23;20031;-86
2021/06/27 21:45:56;;;;;;;1.55;1.45;;;16.80;99.90;;;;;;6211118;23;20471;-86
2021/06/27 21:48:24;;;;;;;1.55;1.45;;;16.80;99.90;;;;;;6211279;23;20013;-86
2021/06/27 21:50:52;;;;;;;1.65;1.33;;;16.70;99.90;;;;;;6209182;23;20024;-86
2021/06/27 21:53:21;;;;;;;1.70;1.15;;;16.70;99.90;;;;;;6210207;23;20051;-86
2021/06/27 21:55:49;;;;;;;0.93;0.90;;;16.60;99.90;;;;;;6222150;23;20024;-86
2021/06/27 21:58:20;;;;;;;0.90;0.90;;;16.50;99.90;;;;;;6213755;23;20025;-86
2021/06/27 22:00:51;;;;;;;1.75;1.50;;;16.50;99.90;;;;;;6174613;23;20075;-86
2021/06/27 22:03:19;;;;;;;1.48;1.23;;;16.50;99.90;;;;;;6185576;23;20024;-86
2021/06/27 22:05:47;;;;;;;2.58;0.90;;;16.40;99.90;;;;;;6209544;23;20035;-86
2021/06/27 22:08:15;;;;;;;2.08;1.05;;;16.40;99.90;;;;;;6221314;23;20017;-85
2021/06/27 22:10:48;;;;;;;2.25;2.05;;;16.30;99.90;;;;;;6210846;23;20028;-86
2021/06/27 22:13:16;;;;;;;1.95;1.63;;;16.00;99.90;;;;;;6211743;23;20029;-85
2021/06/27 22:15:44;;;;;;;1.15;1.08;;;16.00;99.90;;;;;;6211723;23;20028;-86
2021/06/27 22:18:13;;;;;;;1.10;1.00;;;16.00;99.90;;;;;;6212125;23;20044;-85
2021/06/27 22:20:41;;;;;;;2.53;0.82;;;15.90;99.90;;;;;;6222311;23;20317;-85
2021/06/27 22:23:09;;;;;;;1.30;0.90;;;15.90;99.90;;;;;;6211446;23;20025;-85
2021/06/27 22:25:38;;;;;;;0.82;0.82;;;15.90;99.90;;;;;;6210717;23;20021;-88
2021/06/27 22:28:07;;;;;;;1.77;1.23;;;15.90;99.90;;;;;;6188055;23;20025;-88
2021/06/27 22:30:35;;;;;;;2.05;1.05;;;15.90;99.90;;;;;;6210751;23;20047;-89
2021/06/27 22:33:03;;;;;;;1.00;0.80;;;15.90;99.90;;;;;;6210265;23;20352;-88
2021/06/27 22:35:31;;;;;;;1.05;0.98;;;15.90;99.90;;;;;;6187780;23;20016;-88
2021/06/27 22:38:00;;;;;;;1.05;0.90;;;15.80;99.90;;;;;;6161508;23;20017;-88
2021/06/27 22:40:28;;;;;;;1.42;1.33;;;15.80;99.90;;;;;;6162087;23;20016;-88
2021/06/27 22:42:56;;;;;;;0.90;0.90;;;15.80;99.90;;;;;;6187090;23;20020;-89
2021/06/27 22:45:24;;;;;;;1.25;1.10;;;15.80;99.90;;;;;;6210689;23;20021;-88
2021/06/27 22:47:58;;;;;;;1.90;0.98;;;15.70;99.90;;;;;;6186431;23;20021;-88
2021/06/27 22:50:27;;;;;;;3.58;0.80;;;15.60;99.90;;;;;;6211258;23;20072;-87
2021/06/27 22:52:56;;;;;;;0.82;0.70;;;15.60;99.90;;;;;;6186060;23;20017;-87
2021/06/27 22:55:24;;;;;;;8.70;1.00;;;15.80;99.90;;;;;;6213807;23;20023;-88
2021/06/27 22:57:53;;;;;;;1.00;0.90;;;16.00;99.90;;;;;;6186814;23;20020;-88
2021/06/27 23:00:23;;;;;;;3.13;0.80;;;16.10;99.90;;;;;;6163117;23;20021;-88
2021/06/27 23:02:51;;;;;;;0.60;0.60;;;16.10;99.90;;;;;;6209810;23;20039;-88
2021/06/27 23:05:20;;;;;;;0.52;0.52;;;16.00;99.90;;;;;;6210416;23;20029;-89
2021/06/27 23:07:48;;;;;;;0.93;0.93;;;16.00;99.90;;;;;;6211637;23;20017;-88
2021/06/27 23:10:19;;;;;;;0.93;0.88;;;16.00;99.90;;;;;;6162439;23;20466;-89
2021/06/27 23:12:47;;;;;;;0.95;0.90;;;16.00;99.90;;;;;;6186725;23;20016;-88
2021/06/27 23:15:16;;;;;;;1.10;1.00;;;16.00;99.90;;;;;;6163051;23;20028;-87
2021/06/27 23:17:45;;;;;;;2.63;1.00;;;16.00;99.90;;;;;;6186528;23;20020;-88
2021/06/27 23:20:16;;;;;;;0.60;0.60;;;16.00;99.90;;;;;;6187190;23;20012;-88
2021/06/27 23:22:44;;;;;;;1.20;0.77;;;16.10;99.90;;;;;;6186433;23;20035;-88
2021/06/27 23:25:12;;;;;;;0.60;0.60;;;16.10;99.90;;;;;;6186749;23;20020;-85
2021/06/27 23:27:46;;;;;;;0.80;0.80;;;16.20;99.90;;;;;;6213599;23;20024;-86
2021/06/27 23:30:17;;;;;;;0.98;0.88;;;16.10;99.90;;;;;;6161989;23;20039;-87
2021/06/27 23:32:45;;;;;;;0.65;0.65;;;16.20;99.90;;;;;;6220163;23;20032;-86
2021/06/27 23:35:13;;;;;;;0.60;0.60;;;16.10;99.90;;;;;;6212833;23;20344;-87
2021/06/27 23:37:41;;;;;;;1.02;0.80;;;16.10;99.90;;;;;;6211207;23;20027;-86
2021/06/27 23:40:09;;;;;;;1.25;0.80;;;16.00;99.90;;;;;;6187307;23;20016;-86
2021/06/27 23:42:37;;;;;;;1.10;1.00;;;16.10;99.90;;;;;;6186284;23;20040;-86
2021/06/27 23:45:07;;;;;;;1.23;1.13;;;16.20;99.90;;;;;;6211153;23;20028;-86
2021/06/27 23:47:35;;;;;;;0.95;0.95;;;16.20;99.90;;;;;;6213746;23;20036;-86
2021/06/27 23:50:07;;;;;;;2.53;1.05;;;16.20;99.90;;;;;;6186489;23;20025;-86
2021/06/27 23:52:38;;;;;;;0.85;0.80;;;16.20;99.90;;;;;;6186214;23;20344;-86
2021/06/27 23:55:08;;;;;;;1.05;0.90;;;16.00;99.90;;;;;;6212513;23;20016;-86
2021/06/27 23:57:38;;;;;;;2.53;1.27;;;16.00;99.90;;;;;;6212296;23;20051;-86
